createdAt,value
2022-07-27T00:00:44.569Z,99888.16
2022-07-27T00:01:51.268Z,99891.84
2022-07-27T00:02:53.554Z,99893.78
2022-07-27T00:03:55.212Z,99893.03
2022-07-27T00:04:56.818Z,99892.19
2022-07-27T00:05:58.461Z,99890.84
2022-07-27T00:07:00.034Z,99892.97
2022-07-27T00:08:01.588Z,99890.50
2022-07-27T00:09:03.591Z,99888.41
2022-07-27T00:10:05.879Z,99889.78
2022-07-27T00:11:10.085Z,99889.03
2022-07-27T00:12:11.641Z,99882.38
2022-07-27T00:13:13.217Z,99877.41
2022-07-27T00:14:14.860Z,99885.75
2022-07-27T00:15:16.572Z,99888.59
2022-07-27T00:16:18.248Z,99891.44
2022-07-27T00:17:23.847Z,99896.84
2022-07-27T00:18:25.667Z,99899.59
2022-07-27T00:19:27.749Z,99910.19
2022-07-27T00:20:31.600Z,99898.88
2022-07-27T00:21:33.343Z,99900.75
2022-07-27T00:22:34.921Z,99897.28
2022-07-27T00:23:36.527Z,99896.44
2022-07-27T00:24:38.114Z,99899.19
2022-07-27T00:25:39.661Z,99912.28
2022-07-27T00:26:41.228Z,99899.69
2022-07-27T00:27:42.999Z,99899.59
2022-07-27T00:28:44.553Z,99898.22
2022-07-27T00:29:46.104Z,99891.13
2022-07-27T00:30:47.967Z,99895.91
2022-07-27T00:31:49.579Z,99893.69
2022-07-27T00:32:52.060Z,99891.56
2022-07-27T00:33:53.705Z,99898.44
2022-07-27T00:34:55.292Z,99902.16
2022-07-27T00:35:56.841Z,99898.84
2022-07-27T00:36:58.421Z,99900.31
2022-07-27T00:37:59.937Z,99901.31
2022-07-27T00:39:01.579Z,99895.38
2022-07-27T00:40:04.646Z,99896.88
2022-07-27T00:41:06.517Z,99896.88
2022-07-27T00:42:08.139Z,99902.16
2022-07-27T00:43:09.765Z,99893.47
2022-07-27T00:44:12.354Z,99893.25
2022-07-27T00:45:14.173Z,99887.44
2022-07-27T00:46:15.802Z,99893.47
2022-07-27T00:47:17.552Z,99894.31
2022-07-27T00:48:19.307Z,99901.31
2022-07-27T00:49:21.888Z,99891.78
2022-07-27T00:50:23.533Z,99891.03
2022-07-27T00:51:25.840Z,99887.53
2022-07-27T00:52:30.025Z,99893.81
2022-07-27T00:53:31.850Z,99897.28
2022-07-27T00:54:33.649Z,99895.38
2022-07-27T00:55:35.768Z,99899.50
2022-07-27T00:56:37.419Z,99896.94
2022-07-27T00:57:53.183Z,99896.13
2022-07-27T00:59:11.347Z,99882.69
2022-07-27T01:00:14.947Z,99879.72
2022-07-27T01:01:19.014Z,99889.13
2022-07-27T01:02:22.876Z,99885.94
2022-07-27T01:03:29.634Z,99886.69
2022-07-27T01:04:31.657Z,99889.94
2022-07-27T01:05:36.664Z,99888.03
2022-07-27T01:06:39.625Z,99881.69
2022-07-27T01:07:42.524Z,99883.38
2022-07-27T01:08:44.470Z,99884.22
2022-07-27T01:09:58.792Z,99880.63
2022-07-27T01:11:02.929Z,99891.19
2022-07-27T01:12:07.065Z,99877.75
2022-07-27T01:13:12.857Z,99879.44
2022-07-27T01:14:16.925Z,99872.25
2022-07-27T01:15:18.740Z,99868.63
2022-07-27T01:16:21.075Z,99872.25
2022-07-27T01:17:22.789Z,99878.38
2022-07-27T01:18:38.949Z,99870.44
2022-07-27T01:19:40.661Z,99875.72
2022-07-27T01:20:42.870Z,99873.06
2022-07-27T01:21:44.758Z,99872.25
2022-07-27T01:22:46.365Z,99876.91
2022-07-27T01:23:47.967Z,99872.25
2022-07-27T01:24:50.246Z,99884.00
2022-07-27T01:25:51.884Z,99882.53
2022-07-27T01:26:53.360Z,99881.78
2022-07-27T01:27:54.872Z,99877.69
2022-07-27T01:29:01.502Z,99870.91
2022-07-27T01:30:24.477Z,99865.00
2022-07-27T01:31:26.560Z,99865.94
2022-07-27T01:32:28.145Z,99869.66
2022-07-27T01:34:04.584Z,99864.59
2022-07-27T01:35:06.751Z,99866.59
2022-07-27T01:36:08.482Z,99860.56
2022-07-27T01:37:10.104Z,99857.06
2022-07-27T01:38:13.243Z,99861.63
2022-07-27T01:39:16.311Z,99860.88
2022-07-27T01:40:17.949Z,99862.81
2022-07-27T01:41:19.518Z,99861.22
2022-07-27T01:42:21.079Z,99820.81
2022-07-27T01:43:23.081Z,99846.94
2022-07-27T01:44:24.841Z,99860.06
2022-07-27T01:45:26.451Z,99868.84
2022-07-27T01:46:28.086Z,99861.22
2022-07-27T01:47:29.686Z,99864.25
2022-07-27T01:48:31.422Z,99823.06
2022-07-27T01:49:33.081Z,99860.34
2022-07-27T01:50:34.619Z,99817.53
2022-07-27T01:51:36.178Z,99865.22
2022-07-27T01:52:39.247Z,99859.31
2022-07-27T01:53:41.172Z,99858.47
2022-07-27T01:54:42.732Z,99861.22
2022-07-27T01:55:44.541Z,99857.81
2022-07-27T01:56:46.210Z,99860.56
2022-07-27T01:57:49.962Z,99860.56
2022-07-27T01:58:51.521Z,99856.13
2022-07-27T01:59:53.907Z,99859.84
2022-07-27T02:00:55.462Z,99853.06
2022-07-27T02:01:57.108Z,99865.56
2022-07-27T02:02:58.846Z,99841.44
2022-07-27T02:04:00.437Z,99858.75
2022-07-27T02:05:02.312Z,99848.63
2022-07-27T02:06:04.813Z,99847.16
2022-07-27T02:07:06.412Z,99844.81
2022-07-27T02:08:08.691Z,99852.75
2022-07-27T02:09:10.538Z,99855.59
2022-07-27T02:10:12.371Z,99851.22
2022-07-27T02:11:32.653Z,99851.53
2022-07-27T02:12:37.615Z,99848.16
2022-07-27T02:13:39.308Z,99845.84
2022-07-27T02:14:40.848Z,99831.66
2022-07-27T02:15:43.160Z,99848.78
2022-07-27T02:16:46.248Z,99846.44
2022-07-27T02:17:49.181Z,99851.97
2022-07-27T02:18:52.026Z,99858.38
2022-07-27T02:19:56.458Z,99847.38
2022-07-27T02:20:58.083Z,99851.13
2022-07-27T02:21:59.693Z,99849.72
2022-07-27T02:23:01.963Z,99857.97
2022-07-27T02:24:03.590Z,99851.31
2022-07-27T02:25:06.001Z,99861.94
2022-07-27T02:26:08.784Z,99855.06
2022-07-27T02:27:10.373Z,99860.56
2022-07-27T02:28:12.328Z,99860.75
2022-07-27T02:29:14.479Z,99863.50
2022-07-27T02:30:17.675Z,99855.13
2022-07-27T02:31:19.759Z,99851.72
2022-07-27T02:32:21.616Z,99852.56
2022-07-27T02:33:23.204Z,99854.19
2022-07-27T02:34:25.571Z,99849.94
2022-07-27T02:35:27.182Z,99855.50
2022-07-27T02:36:31.757Z,99853.91
2022-07-27T02:37:33.439Z,99844.63
2022-07-27T02:38:34.950Z,99852.44
2022-07-27T02:39:36.588Z,99851.69
2022-07-27T02:40:38.100Z,99852.72
2022-07-27T02:41:39.708Z,99850.19
2022-07-27T02:42:41.332Z,99855.53
2022-07-27T02:43:42.922Z,99854.81
2022-07-27T02:44:44.843Z,99848.88
2022-07-27T02:45:46.763Z,99856.06
2022-07-27T02:46:48.660Z,99855.94
2022-07-27T02:47:50.557Z,99858.78
2022-07-27T02:48:52.171Z,99851.81
2022-07-27T02:49:53.905Z,99850.13
2022-07-27T02:51:00.445Z,99846.72
2022-07-27T02:52:02.092Z,99840.81
2022-07-27T02:53:03.664Z,99852.00
2022-07-27T02:54:05.419Z,99852.63
2022-07-27T02:55:08.346Z,99847.38
2022-07-27T02:56:10.666Z,99850.84
2022-07-27T02:57:12.250Z,99854.47
2022-07-27T02:58:14.001Z,99853.72
2022-07-27T02:59:15.668Z,99849.94
2022-07-27T03:00:17.636Z,99858.69
2022-07-27T03:01:19.390Z,99854.63
2022-07-27T03:02:21.305Z,99860.84
2022-07-27T03:03:22.916Z,99863.59
2022-07-27T03:04:34.649Z,99861.25
2022-07-27T03:05:36.300Z,99857.00
2022-07-27T03:06:38.336Z,99856.16
2022-07-27T03:07:39.903Z,99850.06
2022-07-27T03:08:42.060Z,99863.13
2022-07-27T03:09:43.833Z,99861.25
2022-07-27T03:10:48.703Z,99854.19
2022-07-27T03:11:50.608Z,99856.66
2022-07-27T03:12:52.183Z,99856.81
2022-07-27T03:13:53.744Z,99848.97
2022-07-27T03:14:57.065Z,99851.91
2022-07-27T03:15:58.719Z,99853.44
2022-07-27T03:17:00.657Z,99853.34
2022-07-27T03:18:02.507Z,99855.97
2022-07-27T03:19:04.721Z,99855.41
2022-07-27T03:20:08.099Z,99877.25
2022-07-27T03:21:13.051Z,99865.09
2022-07-27T03:22:14.602Z,99861.63
2022-07-27T03:23:18.039Z,99863.53
2022-07-27T03:24:19.607Z,99861.06
2022-07-27T03:25:21.199Z,99865.66
2022-07-27T03:26:22.753Z,99859.66
2022-07-27T03:27:24.360Z,99861.66
2022-07-27T03:28:25.885Z,99853.91
2022-07-27T03:29:29.348Z,99863.81
2022-07-27T03:30:32.354Z,99851.81
2022-07-27T03:31:34.165Z,99862.47
2022-07-27T03:32:35.753Z,99867.91
2022-07-27T03:33:37.896Z,99865.38
2022-07-27T03:34:39.483Z,99871.69
2022-07-27T03:35:41.079Z,99864.91
2022-07-27T03:36:43.033Z,99866.97
2022-07-27T03:37:44.614Z,99871.41
2022-07-27T03:38:46.210Z,99873.19
2022-07-27T03:39:48.710Z,99875.16
2022-07-27T03:40:50.271Z,99866.41
2022-07-27T03:41:51.881Z,99871.09
2022-07-27T03:42:53.414Z,99874.69
2022-07-27T03:43:54.939Z,99871.38
2022-07-27T03:44:56.559Z,99875.13
2022-07-27T03:45:58.214Z,99876.81
2022-07-27T03:46:59.828Z,99870.78
2022-07-27T03:48:01.476Z,99876.00
2022-07-27T03:49:03.071Z,99878.63
2022-07-27T03:50:16.736Z,99875.13
2022-07-27T03:51:18.281Z,99876.00
2022-07-27T03:52:20.842Z,99871.66
2022-07-27T03:53:22.598Z,99884.72
2022-07-27T03:54:24.454Z,99871.16
2022-07-27T03:55:26.166Z,99877.94
2022-07-27T03:56:27.771Z,99877.84
2022-07-27T03:57:29.387Z,99884.06
2022-07-27T03:58:31.184Z,99878.81
2022-07-27T03:59:32.723Z,99881.53
2022-07-27T04:00:34.327Z,99872.03
2022-07-27T04:01:36.010Z,99876.44
2022-07-27T04:02:37.976Z,99864.47
2022-07-27T04:03:44.087Z,99879.19
2022-07-27T04:04:46.025Z,99875.59
2022-07-27T04:05:47.702Z,99873.06
2022-07-27T04:06:49.308Z,99877.47
2022-07-27T04:07:55.015Z,99838.03
2022-07-27T04:09:07.028Z,99873.97
2022-07-27T04:10:15.612Z,99858.34
2022-07-27T04:11:17.697Z,99860.97
2022-07-27T04:12:20.480Z,99870.22
2022-07-27T04:13:22.890Z,99868.44
2022-07-27T04:14:24.566Z,99873.69
2022-07-27T04:15:26.279Z,99870.03
2022-07-27T04:16:30.722Z,99860.25
2022-07-27T04:17:55.051Z,99872.28
2022-07-27T04:18:56.060Z,99864.22
2022-07-27T04:19:57.632Z,99849.94
2022-07-27T04:21:01.898Z,99868.34
2022-07-27T04:22:04.092Z,99869.03
2022-07-27T04:23:05.633Z,99865.28
2022-07-27T04:24:07.392Z,99863.50
2022-07-27T04:25:09.409Z,99861.25
2022-07-27T04:26:11.020Z,99861.03
2022-07-27T04:27:13.200Z,99873.94
2022-07-27T04:28:14.791Z,99865.09
2022-07-27T04:29:20.580Z,99864.06
2022-07-27T04:30:23.385Z,99863.22
2022-07-27T04:31:25.359Z,99869.13
2022-07-27T04:32:26.947Z,99860.28
2022-07-27T04:33:28.514Z,99859.81
2022-07-27T04:34:30.125Z,99865.38
2022-07-27T04:35:31.690Z,99866.88
2022-07-27T04:36:33.283Z,99866.75
2022-07-27T04:37:35.367Z,99872.66
2022-07-27T04:38:37.067Z,99868.13
2022-07-27T04:39:38.956Z,99844.81
2022-07-27T04:40:40.508Z,99855.81
2022-07-27T04:41:42.414Z,99872.75
2022-07-27T04:42:49.544Z,99870.88
2022-07-27T04:43:52.691Z,99870.66
2022-07-27T04:44:54.260Z,99871.34
2022-07-27T04:45:55.880Z,99872.81
2022-07-27T04:46:57.468Z,99870.75
2022-07-27T04:47:59.064Z,99871.41
2022-07-27T04:49:01.115Z,99877.34
2022-07-27T04:50:02.865Z,99872.53
2022-07-27T04:51:04.647Z,99871.31
2022-07-27T04:52:06.222Z,99873.53
2022-07-27T04:53:08.305Z,99869.75
2022-07-27T04:54:10.051Z,99872.75
2022-07-27T04:55:11.914Z,99877.53
2022-07-27T04:56:13.671Z,99874.50
2022-07-27T04:57:15.705Z,99879.38
2022-07-27T04:58:17.510Z,99806.47
2022-07-27T04:59:19.102Z,99879.50
2022-07-27T05:00:20.668Z,99885.31
2022-07-27T05:01:26.674Z,99882.34
2022-07-27T05:02:31.575Z,99881.81
2022-07-27T05:03:33.161Z,99871.94
2022-07-27T05:04:34.726Z,99875.44
2022-07-27T05:05:36.976Z,99880.22
2022-07-27T05:06:38.545Z,99877.25
2022-07-27T05:07:40.077Z,99877.81
2022-07-27T05:08:41.712Z,99884.06
2022-07-27T05:09:43.382Z,99881.84
2022-07-27T05:10:45.309Z,99876.97
2022-07-27T05:11:51.150Z,99884.16
2022-07-27T05:12:53.894Z,99885.66
2022-07-27T05:13:55.590Z,99886.91
2022-07-27T05:14:57.252Z,99877.63
2022-07-27T05:15:58.913Z,99885.88
2022-07-27T05:17:00.611Z,99890.09
2022-07-27T05:18:02.248Z,99888.19
2022-07-27T05:19:03.842Z,99890.31
2022-07-27T05:20:05.941Z,99895.88
2022-07-27T05:21:08.367Z,99900.66
2022-07-27T05:22:10.576Z,99902.13
2022-07-27T05:23:12.178Z,99824.94
2022-07-27T05:24:13.931Z,99901.06
2022-07-27T05:25:15.596Z,99905.28
2022-07-27T05:26:17.312Z,99899.88
2022-07-27T05:27:18.999Z,99897.00
2022-07-27T05:28:20.584Z,99893.91
2022-07-27T05:29:22.161Z,99909.91
2022-07-27T05:30:25.388Z,99885.00
2022-07-27T05:31:26.991Z,99902.41
2022-07-27T05:32:29.217Z,99898.06
2022-07-27T05:33:30.931Z,99897.59
2022-07-27T05:34:32.516Z,99836.13
2022-07-27T05:35:34.548Z,99896.69
2022-07-27T05:36:36.391Z,99897.94
2022-07-27T05:37:37.960Z,99901.81
2022-07-27T05:38:40.200Z,99878.88
2022-07-27T05:39:42.327Z,99898.94
2022-07-27T05:40:45.693Z,99903.06
2022-07-27T05:41:47.308Z,99892.31
2022-07-27T05:42:51.273Z,99889.50
2022-07-27T05:43:54.595Z,99901.84
2022-07-27T05:44:56.485Z,99898.19
2022-07-27T05:45:58.149Z,99897.38
2022-07-27T05:46:59.827Z,99903.91
2022-07-27T05:48:01.817Z,99899.19
2022-07-27T05:49:03.966Z,99908.84
2022-07-27T05:50:06.121Z,99898.84
2022-07-27T05:51:08.346Z,99898.28
2022-07-27T05:52:09.987Z,99893.22
2022-07-27T05:53:12.942Z,99899.31
2022-07-27T05:54:14.652Z,99902.94
2022-07-27T05:55:16.341Z,99889.69
2022-07-27T05:56:17.920Z,99901.06
2022-07-27T05:57:19.556Z,99902.78
2022-07-27T05:58:21.242Z,99910.00
2022-07-27T05:59:26.441Z,99912.78
2022-07-27T06:00:28.019Z,99905.31
2022-07-27T06:01:29.641Z,99915.78
2022-07-27T06:02:31.676Z,99860.97
2022-07-27T06:03:33.572Z,99911.56
2022-07-27T06:04:35.866Z,99907.59
2022-07-27T06:05:37.539Z,99910.13
2022-07-27T06:06:57.720Z,99909.75
2022-07-27T06:07:59.342Z,99921.22
2022-07-27T06:09:00.948Z,99918.69
2022-07-27T06:10:03.259Z,99914.09
2022-07-27T06:11:04.920Z,99905.66
2022-07-27T06:12:06.855Z,99920.13
2022-07-27T06:13:10.365Z,99903.44
2022-07-27T06:14:11.978Z,99908.19
2022-07-27T06:15:14.893Z,99912.28
2022-07-27T06:16:16.995Z,99906.78
2022-07-27T06:17:18.793Z,99907.84
2022-07-27T06:18:20.356Z,99908.06
2022-07-27T06:19:21.991Z,99906.97
2022-07-27T06:20:24.423Z,99900.09
2022-07-27T06:21:28.092Z,99907.28
2022-07-27T06:22:29.950Z,99901.78
2022-07-27T06:23:31.830Z,99898.16
2022-07-27T06:24:33.953Z,99904.44
2022-07-27T06:25:36.171Z,99912.88
2022-07-27T06:26:38.025Z,99909.25
2022-07-27T06:27:39.680Z,99905.47
2022-07-27T06:28:41.343Z,99914.19
2022-07-27T06:29:43.096Z,99908.06
2022-07-27T06:30:45.872Z,99906.38
2022-07-27T06:31:47.602Z,99906.50
2022-07-27T06:32:49.392Z,99909.50
2022-07-27T06:33:52.379Z,99904.34
2022-07-27T06:34:54.033Z,99894.53
2022-07-27T06:35:58.250Z,99900.03
2022-07-27T06:37:00.171Z,99905.34
2022-07-27T06:38:02.813Z,99903.19
2022-07-27T06:39:04.453Z,99911.59
2022-07-27T06:40:06.651Z,99903.16
2022-07-27T06:41:08.288Z,99903.91
2022-07-27T06:42:09.914Z,99913.78
2022-07-27T06:43:11.499Z,99901.78
2022-07-27T06:44:13.115Z,99908.97
2022-07-27T06:45:14.775Z,99906.00
2022-07-27T06:46:16.838Z,99913.25
2022-07-27T06:47:18.466Z,99906.56
2022-07-27T06:48:21.241Z,99905.72
2022-07-27T06:49:22.829Z,99904.59
2022-07-27T06:50:25.065Z,99912.19
2022-07-27T06:51:26.719Z,99912.88
2022-07-27T06:52:28.517Z,99911.38
2022-07-27T06:53:36.177Z,99911.53
2022-07-27T06:54:38.851Z,99905.38
2022-07-27T06:55:41.252Z,99908.16
2022-07-27T06:56:42.903Z,99902.44
2022-07-27T06:57:46.285Z,99905.56
2022-07-27T06:58:49.153Z,99907.78
2022-07-27T06:59:50.876Z,99910.34
2022-07-27T07:00:52.487Z,99906.66
2022-07-27T07:01:54.089Z,99910.44
2022-07-27T07:03:00.728Z,99905.25
2022-07-27T07:04:02.766Z,99917.06
2022-07-27T07:05:04.861Z,99911.03
2022-07-27T07:06:06.477Z,99915.50
2022-07-27T07:07:08.390Z,99916.78
2022-07-27T07:08:11.981Z,99910.75
2022-07-27T07:09:13.910Z,99909.91
2022-07-27T07:10:16.175Z,99903.75
2022-07-27T07:11:17.841Z,99911.47
2022-07-27T07:12:19.551Z,99910.03
2022-07-27T07:13:21.242Z,99902.88
2022-07-27T07:14:23.715Z,99912.88
2022-07-27T07:15:26.594Z,99900.50
2022-07-27T07:16:28.383Z,99916.56
2022-07-27T07:17:30.008Z,99904.09
2022-07-27T07:18:31.726Z,99896.63
2022-07-27T07:19:33.994Z,99910.22
2022-07-27T07:20:37.173Z,99901.53
2022-07-27T07:21:38.740Z,99910.34
2022-07-27T07:22:40.321Z,99910.75
2022-07-27T07:23:42.156Z,99908.94
2022-07-27T07:24:43.722Z,99913.44
2022-07-27T07:25:45.281Z,99911.34
2022-07-27T07:26:46.871Z,99916.81
2022-07-27T07:27:49.241Z,99912.63
2022-07-27T07:28:50.832Z,99914.03
2022-07-27T07:29:52.968Z,99933.69
2022-07-27T07:30:54.594Z,99916.00
2022-07-27T07:31:56.288Z,99914.19
2022-07-27T07:32:58.177Z,99919.25
2022-07-27T07:34:00.050Z,99909.97
2022-07-27T07:35:03.919Z,99911.78
2022-07-27T07:36:12.106Z,99911.78
2022-07-27T07:37:17.681Z,99916.84
2022-07-27T07:38:19.523Z,99922.34
2022-07-27T07:39:21.387Z,99909.41
2022-07-27T07:40:42.622Z,99909.81
2022-07-27T07:41:44.619Z,99912.91
2022-07-27T07:42:55.391Z,99905.75
2022-07-27T07:43:56.961Z,99906.13
2022-07-27T07:44:58.680Z,99905.44
2022-07-27T07:46:00.256Z,99905.16
2022-07-27T07:47:01.874Z,99907.25
2022-07-27T07:48:05.580Z,99886.31
2022-07-27T07:49:07.233Z,99908.63
2022-07-27T07:50:09.287Z,99909.53
2022-07-27T07:51:11.710Z,99907.69
2022-07-27T07:52:13.529Z,99910.56
2022-07-27T07:53:15.475Z,99902.88
2022-07-27T07:54:17.420Z,99898.41
2022-07-27T07:55:23.846Z,99900.13
2022-07-27T07:56:25.457Z,99897.19
2022-07-27T07:57:27.077Z,99903.59
2022-07-27T07:58:28.760Z,99897.50
2022-07-27T07:59:30.321Z,99896.25
2022-07-27T08:00:32.215Z,99905.16
2022-07-27T08:01:33.948Z,99901.63
2022-07-27T08:02:53.317Z,99903.91
2022-07-27T08:03:55.253Z,99904.78
2022-07-27T08:04:56.799Z,99900.38
2022-07-27T08:05:58.453Z,99905.03
2022-07-27T08:07:00.108Z,99903.22
2022-07-27T08:08:01.683Z,99903.44
2022-07-27T08:09:03.376Z,99903.22
2022-07-27T08:10:07.767Z,99909.22
2022-07-27T08:11:09.400Z,99913.59
2022-07-27T08:12:11.031Z,99909.03
2022-07-27T08:13:12.657Z,99908.25
2022-07-27T08:14:14.235Z,99902.69
2022-07-27T08:15:17.561Z,99897.38
2022-07-27T08:16:19.251Z,99904.38
2022-07-27T08:17:20.912Z,99907.34
2022-07-27T08:18:22.619Z,99899.63
2022-07-27T08:19:24.561Z,99905.97
2022-07-27T08:20:28.235Z,99907.88
2022-07-27T08:21:31.642Z,99910.16
2022-07-27T08:22:37.476Z,99875.38
2022-07-27T08:23:39.125Z,99906.38
2022-07-27T08:24:40.667Z,99910.44
2022-07-27T08:25:42.635Z,99900.16
2022-07-27T08:26:44.247Z,99905.63
2022-07-27T08:27:47.398Z,99913.63
2022-07-27T08:28:59.398Z,99909.31
2022-07-27T08:30:23.234Z,99907.00
2022-07-27T08:31:52.104Z,99900.88
2022-07-27T08:33:01.281Z,99859.97
2022-07-27T08:34:07.013Z,99905.34
2022-07-27T08:35:08.834Z,99906.25
2022-07-27T08:36:10.449Z,99909.16
2022-07-27T08:37:15.396Z,99919.94
2022-07-27T08:38:17.614Z,99905.59
2022-07-27T08:40:05.419Z,99903.94
2022-07-27T08:40:44.869Z,99909.00
2022-07-27T08:41:47.886Z,99895.03
2022-07-27T08:42:49.584Z,99903.28
2022-07-27T08:43:54.411Z,99891.63
2022-07-27T08:44:56.186Z,99904.13
2022-07-27T08:45:59.971Z,99896.41
2022-07-27T08:47:02.981Z,99901.69
2022-07-27T08:48:05.809Z,99898.84
2022-07-27T08:49:08.824Z,99900.06
2022-07-27T08:50:32.248Z,99903.03
2022-07-27T08:51:34.560Z,99897.84
2022-07-27T08:52:36.347Z,99897.22
2022-07-27T08:53:53.196Z,99905.91
2022-07-27T08:54:55.501Z,99907.22
2022-07-27T08:55:57.620Z,99901.44
2022-07-27T08:56:59.252Z,99906.59
2022-07-27T08:58:03.431Z,99904.97
2022-07-27T08:59:05.425Z,99903.56
2022-07-27T09:00:07.789Z,99910.00
2022-07-27T09:01:09.437Z,99900.41
2022-07-27T09:02:14.030Z,99902.00
2022-07-27T09:03:20.109Z,99891.47
2022-07-27T09:04:22.662Z,99903.50
2022-07-27T09:05:24.398Z,99905.13
2022-07-27T09:06:42.706Z,99910.78
2022-07-27T09:07:44.654Z,99876.13
2022-07-27T09:08:59.183Z,99905.47
2022-07-27T09:10:01.327Z,99905.28
2022-07-27T09:11:13.415Z,99907.38
2022-07-27T09:12:15.010Z,99896.06
2022-07-27T09:13:22.053Z,99894.38
2022-07-27T09:14:31.270Z,99903.03
2022-07-27T09:15:34.703Z,99913.97
2022-07-27T09:17:14.787Z,99910.50
2022-07-27T09:17:58.439Z,99902.97
2022-07-27T09:19:05.766Z,99895.66
2022-07-27T09:20:17.352Z,99886.31
2022-07-27T09:21:23.160Z,99905.41
2022-07-27T09:22:56.240Z,99902.72
2022-07-27T09:24:29.349Z,99896.72
2022-07-27T09:27:03.637Z,99895.75
2022-07-27T09:28:05.364Z,99894.34
2022-07-27T09:29:09.975Z,99891.78
2022-07-27T09:30:14.507Z,99896.53
2022-07-27T09:31:16.619Z,99904.56
2022-07-27T09:32:18.216Z,99896.22
2022-07-27T09:33:19.839Z,99897.31
2022-07-27T09:34:31.136Z,99900.44
2022-07-27T09:35:38.611Z,99900.03
2022-07-27T09:36:52.253Z,99896.38
2022-07-27T09:37:53.874Z,99903.13
2022-07-27T09:39:06.807Z,99898.19
2022-07-27T09:40:14.045Z,99898.75
2022-07-27T09:41:16.784Z,99904.78
2022-07-27T09:43:03.812Z,99903.78
2022-07-27T09:44:29.692Z,99905.28
2022-07-27T09:45:34.002Z,99901.13
2022-07-27T09:46:39.071Z,99904.97
2022-07-27T09:47:40.842Z,99912.09
2022-07-27T09:48:42.915Z,99897.19
2022-07-27T09:49:44.547Z,99900.63
2022-07-27T09:51:02.240Z,99901.03
2022-07-27T09:52:05.498Z,99907.97
2022-07-27T09:53:41.845Z,99909.91
2022-07-27T09:54:47.002Z,99900.72
2022-07-27T09:56:13.278Z,99911.16
2022-07-27T09:57:15.194Z,99908.22
2022-07-27T09:58:16.968Z,99901.38
2022-07-27T09:59:19.327Z,99899.47
2022-07-27T10:00:21.597Z,99902.81
2022-07-27T10:01:31.072Z,99899.47
2022-07-27T10:02:32.887Z,99897.59
2022-07-27T10:03:34.552Z,99900.72
2022-07-27T10:04:36.493Z,99899.69
2022-07-27T10:05:38.172Z,99905.53
2022-07-27T10:07:01.206Z,99905.31
2022-07-27T10:08:01.632Z,99901.72
2022-07-27T10:09:03.535Z,99895.72
2022-07-27T10:10:05.848Z,99889.41
2022-07-27T10:11:07.757Z,99898.06
2022-07-27T10:12:09.721Z,99894.88
2022-07-27T10:13:11.436Z,99898.81
2022-07-27T10:14:13.526Z,99896.22
2022-07-27T10:15:15.512Z,99901.19
2022-07-27T10:16:24.164Z,99895.16
2022-07-27T10:17:26.926Z,99906.59
2022-07-27T10:18:50.745Z,99892.31
2022-07-27T10:19:58.175Z,99895.59
2022-07-27T10:21:07.640Z,99891.66
2022-07-27T10:22:09.267Z,99894.78
2022-07-27T10:23:28.443Z,99892.25
2022-07-27T10:24:36.206Z,99891.13
2022-07-27T10:25:43.772Z,99897.78
2022-07-27T10:26:45.419Z,99900.44
2022-07-27T10:28:17.524Z,99896.91
2022-07-27T10:29:21.354Z,99906.91
2022-07-27T10:30:27.996Z,99894.78
2022-07-27T10:31:35.444Z,99899.50
2022-07-27T10:32:37.764Z,99901.72
2022-07-27T10:33:44.215Z,99901.09
2022-07-27T10:34:45.816Z,99890.97
2022-07-27T10:35:47.553Z,99897.47
2022-07-27T10:36:53.611Z,99895.31
2022-07-27T10:38:18.095Z,99886.94
2022-07-27T10:39:30.150Z,99898.19
2022-07-27T10:40:34.468Z,99885.53
2022-07-27T10:41:43.807Z,99888.31
2022-07-27T10:42:51.877Z,99892.00
2022-07-27T10:44:29.171Z,99890.19
2022-07-27T10:46:00.034Z,99889.34
2022-07-27T10:47:04.565Z,99895.69
2022-07-27T10:48:06.310Z,99893.84
2022-07-27T10:49:19.161Z,99890.13
2022-07-27T10:50:27.088Z,99893.81
2022-07-27T10:51:35.218Z,99888.13
2022-07-27T10:52:50.704Z,99890.56
2022-07-27T10:55:32.216Z,99895.47
2022-07-27T10:56:48.299Z,99859.91
2022-07-27T10:57:49.865Z,99884.38
2022-07-27T10:58:51.880Z,99878.72
2022-07-27T11:00:13.357Z,99890.72
2022-07-27T11:01:16.074Z,99892.19
2022-07-27T11:02:18.741Z,99887.09
2022-07-27T11:03:33.054Z,99898.25
2022-07-27T11:04:43.134Z,99903.19
2022-07-27T11:06:30.791Z,99889.28
2022-07-27T11:07:38.299Z,99888.84
2022-07-27T11:08:52.255Z,99885.75
2022-07-27T11:10:05.148Z,99892.16
2022-07-27T11:11:09.644Z,99909.41
2022-07-27T11:12:13.926Z,99898.91
2022-07-27T11:18:15.136Z,99881.03
2022-07-27T11:19:17.960Z,99886.75
2022-07-27T11:20:23.966Z,99885.75
2022-07-27T11:21:27.299Z,99879.06
2022-07-27T11:22:53.676Z,99886.03
2022-07-27T11:23:55.420Z,99883.56
2022-07-27T11:24:57.003Z,99871.91
2022-07-27T11:26:00.240Z,99887.31
2022-07-27T11:27:17.678Z,99875.38
2022-07-27T11:28:28.361Z,99883.28
2022-07-27T11:29:40.152Z,99882.28
2022-07-27T11:30:45.701Z,99880.94
2022-07-27T11:31:56.509Z,99882.34
2022-07-27T11:33:04.925Z,99879.22
2022-07-27T11:34:07.647Z,99879.47
2022-07-27T11:35:19.543Z,99887.63
2022-07-27T11:36:22.609Z,99884.59
2022-07-27T11:37:24.536Z,99890.13
2022-07-27T11:38:27.047Z,99878.19
2022-07-27T11:40:56.827Z,99879.38
2022-07-27T11:42:11.792Z,99861.31
2022-07-27T11:43:33.952Z,99866.50
2022-07-27T11:44:38.576Z,99856.84
2022-07-27T11:45:43.026Z,99884.22
2022-07-27T11:46:47.127Z,99878.25
2022-07-27T11:47:56.983Z,99872.59
2022-07-27T11:49:10.043Z,99882.75
2022-07-27T11:50:13.751Z,99870.66
2022-07-27T11:51:17.189Z,99883.03
2022-07-27T11:52:18.934Z,99865.28
2022-07-27T11:53:20.852Z,99868.75
2022-07-27T11:54:26.786Z,99870.22
2022-07-27T11:55:28.518Z,99863.88
2022-07-27T11:56:33.511Z,99869.25
2022-07-27T11:57:36.091Z,99867.78
2022-07-27T11:59:27.738Z,99878.63
2022-07-27T12:00:42.572Z,99875.47
2022-07-27T12:01:55.445Z,99876.34
2022-07-27T12:02:57.226Z,99865.94
2022-07-27T12:04:10.299Z,99874.56
2022-07-27T12:05:12.010Z,99864.13
2022-07-27T12:06:13.747Z,99861.81
2022-07-27T12:07:22.021Z,99862.06
2022-07-27T12:08:24.343Z,99857.78
2022-07-27T12:09:27.074Z,99868.63
2022-07-27T12:10:34.486Z,99870.13
2022-07-27T12:12:02.162Z,99875.47
2022-07-27T12:13:03.803Z,99853.69
2022-07-27T12:14:12.415Z,99868.31
2022-07-27T12:16:40.525Z,99859.72
2022-07-27T12:17:47.266Z,99854.00
2022-07-27T12:18:48.967Z,99863.59
2022-07-27T12:19:52.021Z,99857.84
2022-07-27T12:20:53.684Z,99858.59
2022-07-27T12:21:55.379Z,99865.66
2022-07-27T12:23:05.106Z,99857.50
2022-07-27T12:24:07.192Z,99859.00
2022-07-27T12:25:17.799Z,99854.81
2022-07-27T12:26:21.311Z,99858.53
2022-07-27T12:27:23.852Z,99857.00
2022-07-27T12:28:25.625Z,99855.28
2022-07-27T12:29:27.438Z,99862.78
2022-07-27T12:30:38.041Z,99845.84
2022-07-27T12:31:48.672Z,99855.19
2022-07-27T12:32:54.064Z,99852.59
2022-07-27T12:34:05.650Z,99859.44
2022-07-27T12:35:47.342Z,99858.47
2022-07-27T12:36:48.983Z,99858.00
2022-07-27T12:38:08.257Z,99853.63
2022-07-27T12:39:26.679Z,99850.19
2022-07-27T12:40:30.028Z,99855.38
2022-07-27T12:41:36.602Z,99860.59
2022-07-27T12:42:38.173Z,99853.09
2022-07-27T12:43:40.020Z,99856.84
2022-07-27T12:44:44.935Z,99840.22
2022-07-27T12:45:48.678Z,99856.16
2022-07-27T12:47:27.798Z,99850.47
2022-07-27T12:48:38.769Z,99854.63